sensor_id;sensor_type;location;lat;lon;timestamp;P1;durP1;ratioP1;P2;durP2;ratioP2
67798;SDS011;54596;43.216;27.904;2024-01-15T00:01:16;20.85;;;13.23;;
67798;SDS011;54596;43.216;27.904;2024-01-15T00:03:42;20.67;;;12.48;;
67798;SDS011;54596;43.216;27.904;2024-01-15T00:06:07;21.00;;;12.75;;
67798;SDS011;54596;43.216;27.904;2024-01-15T00:08:33;21.13;;;12.65;;
67798;SDS011;54596;43.216;27.904;2024-01-15T00:10:59;21.02;;;13.15;;
67798;SDS011;54596;43.216;27.904;2024-01-15T00:13:24;21.73;;;12.68;;
67798;SDS011;54596;43.216;27.904;2024-01-15T00:15:50;20.65;;;12.68;;
67798;SDS011;54596;43.216;27.904;2024-01-15T00:18:16;20.40;;;12.55;;
67798;SDS011;54596;43.216;27.904;2024-01-15T00:20:41;23.10;;;13.50;;
67798;SDS011;54596;43.216;27.904;2024-01-15T00:23:07;22.50;;;14.52;;
67798;SDS011;54596;43.216;27.904;2024-01-15T00:25:33;28.35;;;18.35;;
67798;SDS011;54596;43.216;27.904;2024-01-15T00:27:58;33.10;;;21.52;;
67798;SDS011;54596;43.216;27.904;2024-01-15T00:30:24;34.47;;;22.77;;
67798;SDS011;54596;43.216;27.904;2024-01-15T00:32:49;35.50;;;22.67;;
67798;SDS011;54596;43.216;27.904;2024-01-15T00:35:15;36.58;;;23.42;;
67798;SDS011;54596;43.216;27.904;2024-01-15T00:37:40;36.95;;;23.88;;
67798;SDS011;54596;43.216;27.904;2024-01-15T00:40:06;39.00;;;24.15;;
67798;SDS011;54596;43.216;27.904;2024-01-15T00:42:33;33.92;;;22.92;;
67798;SDS011;54596;43.216;27.904;2024-01-15T00:44:59;36.33;;;23.15;;
67798;SDS011;54596;43.216;27.904;2024-01-15T00:47:25;33.38;;;21.88;;
67798;SDS011;54596;43.216;27.904;2024-01-15T00:49:51;35.78;;;23.38;;
67798;SDS011;54596;43.216;27.904;2024-01-15T00:52:16;32.20;;;21.88;;
67798;SDS011;54596;43.216;27.904;2024-01-15T00:54:42;35.00;;;22.40;;
67798;SDS011;54596;43.216;27.904;2024-01-15T00:57:07;34.58;;;22.98;;
67798;SDS011;54596;43.216;27.904;2024-01-15T00:59:33;37.17;;;25.83;;
67798;SDS011;54596;43.216;27.904;2024-01-15T01:01:59;38.72;;;25.98;;
67798;SDS011;54596;43.216;27.904;2024-01-15T01:04:24;41.65;;;26.42;;
67798;SDS011;54596;43.216;27.904;2024-01-15T01:06:50;37.45;;;26.05;;
67798;SDS011;54596;43.216;27.904;2024-01-15T01:09:15;37.70;;;25.70;;
67798;SDS011;54596;43.216;27.904;2024-01-15T01:11:41;38.92;;;25.70;;
67798;SDS011;54596;43.216;27.904;2024-01-15T01:14:06;35.42;;;24.25;;
67798;SDS011;54596;43.216;27.904;2024-01-15T01:16:32;37.17;;;23.92;;
67798;SDS011;54596;43.216;27.904;2024-01-15T01:19:03;40.80;;;18.40;;
67798;SDS011;54596;43.216;27.904;2024-01-15T01:21:32;33.50;;;17.65;;
67798;SDS011;54596;43.216;27.904;2024-01-15T01:23:58;38.60;;;24.63;;
67798;SDS011;54596;43.216;27.904;2024-01-15T01:26:24;36.97;;;24.23;;
67798;SDS011;54596;43.216;27.904;2024-01-15T01:28:49;37.30;;;24.20;;
67798;SDS011;54596;43.216;27.904;2024-01-15T01:31:15;37.85;;;23.85;;
67798;SDS011;54596;43.216;27.904;2024-01-15T01:33:41;36.22;;;23.30;;
67798;SDS011;54596;43.216;27.904;2024-01-15T01:36:10;39.20;;;24.05;;
67798;SDS011;54596;43.216;27.904;2024-01-15T01:38:36;36.83;;;24.35;;
67798;SDS011;54596;43.216;27.904;2024-01-15T01:41:02;34.35;;;22.83;;
67798;SDS011;54596;43.216;27.904;2024-01-15T01:43:28;37.92;;;23.27;;
67798;SDS011;54596;43.216;27.904;2024-01-15T01:45:54;36.45;;;23.35;;
67798;SDS011;54596;43.216;27.904;2024-01-15T01:48:21;34.63;;;22.73;;
67798;SDS011;54596;43.216;27.904;2024-01-15T01:50:48;38.25;;;23.02;;
67798;SDS011;54596;43.216;27.904;2024-01-15T01:53:14;39.00;;;23.00;;
67798;SDS011;54596;43.216;27.904;2024-01-15T01:55:40;40.75;;;24.15;;
67798;SDS011;54596;43.216;27.904;2024-01-15T01:58:06;37.72;;;23.58;;
67798;SDS011;54596;43.216;27.904;2024-01-15T02:00:32;34.90;;;23.55;;
67798;SDS011;54596;43.216;27.904;2024-01-15T02:02:59;36.88;;;23.15;;
67798;SDS011;54596;43.216;27.904;2024-01-15T02:05:25;43.42;;;24.27;;
67798;SDS011;54596;43.216;27.904;2024-01-15T02:07:51;41.10;;;25.30;;
67798;SDS011;54596;43.216;27.904;2024-01-15T02:10:17;38.70;;;18.55;;
67798;SDS011;54596;43.216;27.904;2024-01-15T02:12:43;35.42;;;23.58;;
67798;SDS011;54596;43.216;27.904;2024-01-15T02:15:09;36.15;;;23.80;;
67798;SDS011;54596;43.216;27.904;2024-01-15T02:17:34;42.67;;;24.95;;
67798;SDS011;54596;43.216;27.904;2024-01-15T02:20:01;36.72;;;23.85;;
67798;SDS011;54596;43.216;27.904;2024-01-15T02:22:26;40.15;;;25.17;;
67798;SDS011;54596;43.216;27.904;2024-01-15T02:24:52;35.92;;;24.13;;
67798;SDS011;54596;43.216;27.904;2024-01-15T02:27:17;35.85;;;23.58;;
67798;SDS011;54596;43.216;27.904;2024-01-15T02:29:44;40.97;;;25.38;;
67798;SDS011;54596;43.216;27.904;2024-01-15T02:32:10;38.08;;;23.95;;
67798;SDS011;54596;43.216;27.904;2024-01-15T02:34:36;36.38;;;24.00;;
67798;SDS011;54596;43.216;27.904;2024-01-15T02:37:02;37.72;;;24.85;;
67798;SDS011;54596;43.216;27.904;2024-01-15T02:39:27;36.05;;;17.73;;
67798;SDS011;54596;43.216;27.904;2024-01-15T02:41:54;35.45;;;24.98;;
67798;SDS011;54596;43.216;27.904;2024-01-15T02:44:21;34.50;;;18.13;;
67798;SDS011;54596;43.216;27.904;2024-01-15T02:46:46;36.63;;;24.98;;
67798;SDS011;54596;43.216;27.904;2024-01-15T02:49:12;36.80;;;18.30;;
67798;SDS011;54596;43.216;27.904;2024-01-15T02:51:37;40.35;;;25.90;;
67798;SDS011;54596;43.216;27.904;2024-01-15T02:54:03;34.75;;;18.00;;
67798;SDS011;54596;43.216;27.904;2024-01-15T02:56:29;44.08;;;26.02;;
67798;SDS011;54596;43.216;27.904;2024-01-15T02:58:54;40.42;;;25.98;;
67798;SDS011;54596;43.216;27.904;2024-01-15T03:01:20;41.28;;;25.98;;
67798;SDS011;54596;43.216;27.904;2024-01-15T03:03:45;41.20;;;24.33;;
67798;SDS011;54596;43.216;27.904;2024-01-15T03:06:11;38.47;;;24.65;;
67798;SDS011;54596;43.216;27.904;2024-01-15T03:08:37;38.83;;;24.88;;
67798;SDS011;54596;43.216;27.904;2024-01-15T03:11:02;37.25;;;18.17;;
67798;SDS011;54596;43.216;27.904;2024-01-15T03:13:28;38.08;;;24.95;;
67798;SDS011;54596;43.216;27.904;2024-01-15T03:15:53;34.35;;;17.58;;
67798;SDS011;54596;43.216;27.904;2024-01-15T03:18:19;36.45;;;18.42;;
67798;SDS011;54596;43.216;27.904;2024-01-15T03:20:44;37.63;;;23.58;;
67798;SDS011;54596;43.216;27.904;2024-01-15T03:23:10;37.60;;;22.70;;
67798;SDS011;54596;43.216;27.904;2024-01-15T03:25:35;33.28;;;16.67;;
67798;SDS011;54596;43.216;27.904;2024-01-15T03:28:01;33.28;;;15.25;;
67798;SDS011;54596;43.216;27.904;2024-01-15T03:30:26;36.70;;;20.73;;
67798;SDS011;54596;43.216;27.904;2024-01-15T03:32:52;32.80;;;20.75;;
67798;SDS011;54596;43.216;27.904;2024-01-15T03:35:18;34.08;;;20.58;;
67798;SDS011;54596;43.216;27.904;2024-01-15T03:37:43;34.55;;;20.55;;
67798;SDS011;54596;43.216;27.904;2024-01-15T03:40:09;29.67;;;14.43;;
67798;SDS011;54596;43.216;27.904;2024-01-15T03:42:35;33.25;;;21.42;;
67798;SDS011;54596;43.216;27.904;2024-01-15T03:45:01;31.98;;;20.35;;
67798;SDS011;54596;43.216;27.904;2024-01-15T03:47:26;33.25;;;15.00;;
67798;SDS011;54596;43.216;27.904;2024-01-15T03:49:52;30.50;;;19.73;;
67798;SDS011;54596;43.216;27.904;2024-01-15T03:52:17;32.72;;;19.50;;
67798;SDS011;54596;43.216;27.904;2024-01-15T03:54:43;32.00;;;14.85;;
67798;SDS011;54596;43.216;27.904;2024-01-15T03:57:08;33.20;;;15.50;;
67798;SDS011;54596;43.216;27.904;2024-01-15T03:59:34;33.55;;;20.13;;
67798;SDS011;54596;43.216;27.904;2024-01-15T04:01:59;37.45;;;20.83;;
67798;SDS011;54596;43.216;27.904;2024-01-15T04:04:26;35.08;;;21.02;;
67798;SDS011;54596;43.216;27.904;2024-01-15T04:06:51;33.35;;;15.15;;
67798;SDS011;54596;43.216;27.904;2024-01-15T04:09:17;32.70;;;18.63;;
67798;SDS011;54596;43.216;27.904;2024-01-15T04:11:42;33.95;;;19.70;;
67798;SDS011;54596;43.216;27.904;2024-01-15T04:14:08;29.75;;;19.63;;
67798;SDS011;54596;43.216;27.904;2024-01-15T04:16:33;33.30;;;14.45;;
67798;SDS011;54596;43.216;27.904;2024-01-15T04:18:59;28.90;;;13.20;;
67798;SDS011;54596;43.216;27.904;2024-01-15T04:21:24;34.05;;;18.98;;
67798;SDS011;54596;43.216;27.904;2024-01-15T04:23:50;30.48;;;13.88;;
67798;SDS011;54596;43.216;27.904;2024-01-15T04:26:15;27.60;;;13.45;;
67798;SDS011;54596;43.216;27.904;2024-01-15T04:28:41;30.65;;;13.93;;
67798;SDS011;54596;43.216;27.904;2024-01-15T04:31:06;34.63;;;21.23;;
67798;SDS011;54596;43.216;27.904;2024-01-15T04:33:32;33.13;;;21.40;;
67798;SDS011;54596;43.216;27.904;2024-01-15T04:36:01;34.25;;;18.63;;
67798;SDS011;54596;43.216;27.904;2024-01-15T04:38:27;31.10;;;19.48;;
67798;SDS011;54596;43.216;27.904;2024-01-15T04:40:53;33.70;;;20.45;;
67798;SDS011;54596;43.216;27.904;2024-01-15T04:43:18;29.92;;;17.67;;
67798;SDS011;54596;43.216;27.904;2024-01-15T04:45:44;30.48;;;17.70;;
67798;SDS011;54596;43.216;27.904;2024-01-15T04:48:09;30.13;;;18.65;;
67798;SDS011;54596;43.216;27.904;2024-01-15T04:50:35;29.35;;;13.63;;
67798;SDS011;54596;43.216;27.904;2024-01-15T04:53:00;30.05;;;15.20;;
67798;SDS011;54596;43.216;27.904;2024-01-15T04:55:26;36.95;;;23.20;;
67798;SDS011;54596;43.216;27.904;2024-01-15T04:57:52;39.95;;;19.15;;
67798;SDS011;54596;43.216;27.904;2024-01-15T05:00:17;32.85;;;17.73;;
67798;SDS011;54596;43.216;27.904;2024-01-15T05:02:44;42.15;;;25.30;;
67798;SDS011;54596;43.216;27.904;2024-01-15T05:05:10;39.00;;;25.33;;
67798;SDS011;54596;43.216;27.904;2024-01-15T05:07:35;42.38;;;26.20;;
67798;SDS011;54596;43.216;27.904;2024-01-15T05:10:01;49.22;;;30.33;;
67798;SDS011;54596;43.216;27.904;2024-01-15T05:12:26;54.75;;;36.63;;
67798;SDS011;54596;43.216;27.904;2024-01-15T05:14:52;64.95;;;38.85;;
67798;SDS011;54596;43.216;27.904;2024-01-15T05:17:17;58.70;;;39.88;;
67798;SDS011;54596;43.216;27.904;2024-01-15T05:19:43;56.88;;;29.70;;
67798;SDS011;54596;43.216;27.904;2024-01-15T05:22:08;66.50;;;29.70;;
67798;SDS011;54596;43.216;27.904;2024-01-15T05:24:34;61.25;;;30.88;;
67798;SDS011;54596;43.216;27.904;2024-01-15T05:26:59;63.05;;;42.17;;
67798;SDS011;54596;43.216;27.904;2024-01-15T05:29:25;64.57;;;42.03;;
67798;SDS011;54596;43.216;27.904;2024-01-15T05:31:51;61.25;;;30.35;;
67798;SDS011;54596;43.216;27.904;2024-01-15T05:34:17;58.25;;;28.85;;
67798;SDS011;54596;43.216;27.904;2024-01-15T05:36:43;59.92;;;29.42;;
67798;SDS011;54596;43.216;27.904;2024-01-15T05:39:08;59.85;;;28.65;;
67798;SDS011;54596;43.216;27.904;2024-01-15T05:41:34;61.38;;;29.05;;
67798;SDS011;54596;43.216;27.904;2024-01-15T05:43:59;55.83;;;26.52;;
67798;SDS011;54596;43.216;27.904;2024-01-15T05:46:25;52.63;;;26.33;;
67798;SDS011;54596;43.216;27.904;2024-01-15T05:48:51;58.08;;;27.23;;
67798;SDS011;54596;43.216;27.904;2024-01-15T05:51:16;51.90;;;33.33;;
67798;SDS011;54596;43.216;27.904;2024-01-15T05:53:42;55.72;;;35.00;;
67798;SDS011;54596;43.216;27.904;2024-01-15T05:56:09;53.17;;;31.38;;
67798;SDS011;54596;43.216;27.904;2024-01-15T05:58:35;57.75;;;31.80;;
67798;SDS011;54596;43.216;27.904;2024-01-15T06:01:00;48.40;;;30.58;;
67798;SDS011;54596;43.216;27.904;2024-01-15T06:03:26;54.67;;;32.33;;
67798;SDS011;54596;43.216;27.904;2024-01-15T06:05:52;60.30;;;34.63;;
67798;SDS011;54596;43.216;27.904;2024-01-15T06:08:18;49.72;;;25.52;;
67798;SDS011;54596;43.216;27.904;2024-01-15T06:10:44;46.03;;;24.42;;
67798;SDS011;54596;43.216;27.904;2024-01-15T06:13:09;56.25;;;26.20;;
67798;SDS011;54596;43.216;27.904;2024-01-15T06:15:35;60.95;;;28.05;;
67798;SDS011;54596;43.216;27.904;2024-01-15T06:18:00;50.75;;;33.78;;
67798;SDS011;54596;43.216;27.904;2024-01-15T06:20:26;57.35;;;33.92;;
67798;SDS011;54596;43.216;27.904;2024-01-15T06:22:51;57.40;;;33.03;;
67798;SDS011;54596;43.216;27.904;2024-01-15T06:25:17;48.88;;;30.75;;
67798;SDS011;54596;43.216;27.904;2024-01-15T06:27:42;46.60;;;28.15;;
67798;SDS011;54596;43.216;27.904;2024-01-15T06:30:08;53.72;;;31.17;;
67798;SDS011;54596;43.216;27.904;2024-01-15T06:32:34;53.10;;;31.45;;
67798;SDS011;54596;43.216;27.904;2024-01-15T06:35:00;61.38;;;33.58;;
67798;SDS011;54596;43.216;27.904;2024-01-15T06:37:25;63.42;;;33.85;;
67798;SDS011;54596;43.216;27.904;2024-01-15T06:39:51;58.03;;;29.80;;
67798;SDS011;54596;43.216;27.904;2024-01-15T06:42:17;52.47;;;30.35;;
67798;SDS011;54596;43.216;27.904;2024-01-15T06:44:42;46.53;;;28.55;;
67798;SDS011;54596;43.216;27.904;2024-01-15T06:47:08;45.83;;;27.65;;
67798;SDS011;54596;43.216;27.904;2024-01-15T06:49:33;52.90;;;30.10;;
67798;SDS011;54596;43.216;27.904;2024-01-15T06:51:59;55.53;;;29.98;;
67798;SDS011;54596;43.216;27.904;2024-01-15T06:54:24;57.45;;;28.98;;
67798;SDS011;54596;43.216;27.904;2024-01-15T06:56:51;49.65;;;28.98;;
67798;SDS011;54596;43.216;27.904;2024-01-15T06:59:17;55.35;;;28.00;;
67798;SDS011;54596;43.216;27.904;2024-01-15T07:01:42;55.92;;;28.42;;
67798;SDS011;54596;43.216;27.904;2024-01-15T07:04:08;50.65;;;27.52;;
67798;SDS011;54596;43.216;27.904;2024-01-15T07:06:34;48.08;;;29.65;;
67798;SDS011;54596;43.216;27.904;2024-01-15T07:08:59;47.83;;;29.40;;
67798;SDS011;54596;43.216;27.904;2024-01-15T07:11:25;46.08;;;27.75;;
67798;SDS011;54596;43.216;27.904;2024-01-15T07:13:50;57.20;;;35.13;;
67798;SDS011;54596;43.216;27.904;2024-01-15T07:16:16;65.85;;;34.95;;
67798;SDS011;54596;43.216;27.904;2024-01-15T07:18:41;61.92;;;36.95;;
67798;SDS011;54596;43.216;27.904;2024-01-15T07:21:07;59.33;;;36.63;;
67798;SDS011;54596;43.216;27.904;2024-01-15T07:23:33;67.43;;;39.08;;
67798;SDS011;54596;43.216;27.904;2024-01-15T07:25:58;77.90;;;46.50;;
67798;SDS011;54596;43.216;27.904;2024-01-15T07:28:24;70.32;;;43.95;;
67798;SDS011;54596;43.216;27.904;2024-01-15T07:30:49;74.45;;;42.38;;
67798;SDS011;54596;43.216;27.904;2024-01-15T07:33:15;70.97;;;40.45;;
67798;SDS011;54596;43.216;27.904;2024-01-15T07:35:41;66.20;;;39.00;;
67798;SDS011;54596;43.216;27.904;2024-01-15T07:38:06;63.55;;;37.70;;
67798;SDS011;54596;43.216;27.904;2024-01-15T07:40:33;53.95;;;37.92;;
67798;SDS011;54596;43.216;27.904;2024-01-15T07:42:59;62.88;;;35.72;;
67798;SDS011;54596;43.216;27.904;2024-01-15T07:45:24;46.95;;;29.23;;
67798;SDS011;54596;43.216;27.904;2024-01-15T07:47:50;42.88;;;25.58;;
67798;SDS011;54596;43.216;27.904;2024-01-15T07:50:15;43.88;;;25.77;;
67798;SDS011;54596;43.216;27.904;2024-01-15T07:52:41;41.53;;;26.63;;
67798;SDS011;54596;43.216;27.904;2024-01-15T07:55:09;43.85;;;26.98;;
67798;SDS011;54596;43.216;27.904;2024-01-15T07:57:35;40.67;;;24.98;;
67798;SDS011;54596;43.216;27.904;2024-01-15T08:00:01;47.55;;;25.50;;
67798;SDS011;54596;43.216;27.904;2024-01-15T08:02:30;52.88;;;27.98;;
67798;SDS011;54596;43.216;27.904;2024-01-15T08:04:57;63.42;;;29.98;;
67798;SDS011;54596;43.216;27.904;2024-01-15T08:07:24;92.20;;;34.83;;
67798;SDS011;54596;43.216;27.904;2024-01-15T08:09:51;50.17;;;29.02;;
67798;SDS011;54596;43.216;27.904;2024-01-15T08:12:17;47.20;;;27.92;;
67798;SDS011;54596;43.216;27.904;2024-01-15T08:14:43;43.45;;;26.90;;
67798;SDS011;54596;43.216;27.904;2024-01-15T08:17:08;50.15;;;28.40;;
67798;SDS011;54596;43.216;27.904;2024-01-15T08:19:34;60.92;;;28.92;;
67798;SDS011;54596;43.216;27.904;2024-01-15T08:22:00;42.17;;;26.52;;
67798;SDS011;54596;43.216;27.904;2024-01-15T08:24:25;48.40;;;27.35;;
67798;SDS011;54596;43.216;27.904;2024-01-15T08:26:51;54.95;;;33.00;;
67798;SDS011;54596;43.216;27.904;2024-01-15T08:29:17;58.97;;;34.92;;
67798;SDS011;54596;43.216;27.904;2024-01-15T08:31:45;54.75;;;32.20;;
67798;SDS011;54596;43.216;27.904;2024-01-15T08:34:11;53.38;;;32.88;;
67798;SDS011;54596;43.216;27.904;2024-01-15T08:36:36;56.72;;;33.28;;
67798;SDS011;54596;43.216;27.904;2024-01-15T08:39:02;55.08;;;34.03;;
67798;SDS011;54596;43.216;27.904;2024-01-15T08:41:29;58.47;;;33.47;;
67798;SDS011;54596;43.216;27.904;2024-01-15T08:43:56;48.40;;;31.45;;
67798;SDS011;54596;43.216;27.904;2024-01-15T08:46:22;44.08;;;29.77;;
67798;SDS011;54596;43.216;27.904;2024-01-15T08:48:48;45.65;;;28.80;;
67798;SDS011;54596;43.216;27.904;2024-01-15T08:51:13;49.20;;;28.02;;
67798;SDS011;54596;43.216;27.904;2024-01-15T08:53:39;41.80;;;25.58;;
67798;SDS011;54596;43.216;27.904;2024-01-15T08:56:05;43.72;;;27.60;;
67798;SDS011;54596;43.216;27.904;2024-01-15T08:58:31;42.55;;;24.58;;
67798;SDS011;54596;43.216;27.904;2024-01-15T09:00:56;42.00;;;26.40;;
67798;SDS011;54596;43.216;27.904;2024-01-15T09:03:22;42.30;;;25.55;;
67798;SDS011;54596;43.216;27.904;2024-01-15T09:05:47;46.03;;;26.15;;
67798;SDS011;54596;43.216;27.904;2024-01-15T09:08:15;54.75;;;32.30;;
67798;SDS011;54596;43.216;27.904;2024-01-15T09:10:40;55.88;;;31.20;;
67798;SDS011;54596;43.216;27.904;2024-01-15T09:13:06;49.22;;;29.85;;
67798;SDS011;54596;43.216;27.904;2024-01-15T09:15:31;53.90;;;29.58;;
67798;SDS011;54596;43.216;27.904;2024-01-15T09:17:57;50.00;;;27.90;;
67798;SDS011;54596;43.216;27.904;2024-01-15T09:20:23;34.50;;;19.38;;
67798;SDS011;54596;43.216;27.904;2024-01-15T09:22:51;39.55;;;21.30;;
67798;SDS011;54596;43.216;27.904;2024-01-15T09:25:16;37.17;;;19.63;;
67798;SDS011;54596;43.216;27.904;2024-01-15T09:27:42;31.02;;;16.58;;
67798;SDS011;54596;43.216;27.904;2024-01-15T09:30:08;31.90;;;14.57;;
67798;SDS011;54596;43.216;27.904;2024-01-15T09:32:33;33.88;;;17.48;;
67798;SDS011;54596;43.216;27.904;2024-01-15T09:34:59;30.40;;;17.08;;
67798;SDS011;54596;43.216;27.904;2024-01-15T09:37:25;33.38;;;18.85;;
67798;SDS011;54596;43.216;27.904;2024-01-15T09:39:50;34.88;;;18.98;;
67798;SDS011;54596;43.216;27.904;2024-01-15T09:42:16;32.17;;;19.85;;
67798;SDS011;54596;43.216;27.904;2024-01-15T09:44:42;31.67;;;19.17;;
67798;SDS011;54596;43.216;27.904;2024-01-15T09:47:08;29.75;;;18.35;;
67798;SDS011;54596;43.216;27.904;2024-01-15T09:49:34;37.75;;;20.75;;
67798;SDS011;54596;43.216;27.904;2024-01-15T09:52:00;38.95;;;22.88;;
67798;SDS011;54596;43.216;27.904;2024-01-15T09:54:27;39.90;;;21.05;;
67798;SDS011;54596;43.216;27.904;2024-01-15T09:56:53;32.90;;;19.23;;
67798;SDS011;54596;43.216;27.904;2024-01-15T09:59:19;35.47;;;19.08;;
67798;SDS011;54596;43.216;27.904;2024-01-15T10:01:47;29.58;;;17.50;;
67798;SDS011;54596;43.216;27.904;2024-01-15T10:04:16;26.88;;;16.38;;
67798;SDS011;54596;43.216;27.904;2024-01-15T10:06:43;27.25;;;14.95;;
67798;SDS011;54596;43.216;27.904;2024-01-15T10:09:13;25.45;;;13.50;;
67798;SDS011;54596;43.216;27.904;2024-01-15T10:11:41;22.27;;;12.13;;
67798;SDS011;54596;43.216;27.904;2024-01-15T10:14:07;28.30;;;16.13;;
67798;SDS011;54596;43.216;27.904;2024-01-15T10:16:33;28.08;;;17.58;;
67798;SDS011;54596;43.216;27.904;2024-01-15T10:18:59;27.33;;;16.60;;
67798;SDS011;54596;43.216;27.904;2024-01-15T10:21:24;32.28;;;16.77;;
67798;SDS011;54596;43.216;27.904;2024-01-15T10:23:51;30.38;;;17.15;;
67798;SDS011;54596;43.216;27.904;2024-01-15T10:26:17;33.00;;;16.77;;
67798;SDS011;54596;43.216;27.904;2024-01-15T10:28:42;33.83;;;16.92;;
67798;SDS011;54596;43.216;27.904;2024-01-15T10:31:08;30.63;;;16.25;;
67798;SDS011;54596;43.216;27.904;2024-01-15T10:33:35;28.33;;;16.27;;
67798;SDS011;54596;43.216;27.904;2024-01-15T10:36:00;31.83;;;17.00;;
67798;SDS011;54596;43.216;27.904;2024-01-15T10:38:26;27.58;;;15.90;;
67798;SDS011;54596;43.216;27.904;2024-01-15T10:40:52;26.35;;;14.80;;
67798;SDS011;54596;43.216;27.904;2024-01-15T10:43:21;21.77;;;12.55;;
67798;SDS011;54596;43.216;27.904;2024-01-15T10:45:48;17.70;;;10.18;;
67798;SDS011;54596;43.216;27.904;2024-01-15T10:48:16;18.33;;;10.93;;
67798;SDS011;54596;43.216;27.904;2024-01-15T10:50:44;17.60;;;9.93;;
67798;SDS011;54596;43.216;27.904;2024-01-15T10:53:14;24.30;;;14.40;;
67798;SDS011;54596;43.216;27.904;2024-01-15T10:55:41;21.40;;;9.73;;
67798;SDS011;54596;43.216;27.904;2024-01-15T10:58:08;18.38;;;10.50;;
67798;SDS011;54596;43.216;27.904;2024-01-15T11:00:37;20.48;;;10.27;;
67798;SDS011;54596;43.216;27.904;2024-01-15T11:03:04;19.80;;;11.20;;
67798;SDS011;54596;43.216;27.904;2024-01-15T11:05:37;19.42;;;10.63;;
67798;SDS011;54596;43.216;27.904;2024-01-15T11:08:06;17.35;;;10.40;;
67798;SDS011;54596;43.216;27.904;2024-01-15T11:13:14;15.02;;;8.82;;
67798;SDS011;54596;43.216;27.904;2024-01-15T11:15:55;16.27;;;9.75;;
67798;SDS011;54596;43.216;27.904;2024-01-15T11:18:26;16.45;;;9.45;;
67798;SDS011;54596;43.216;27.904;2024-01-15T11:28:56;17.25;;;9.73;;
67798;SDS011;54596;43.216;27.904;2024-01-15T11:31:28;17.20;;;8.85;;
67798;SDS011;54596;43.216;27.904;2024-01-15T11:34:06;18.55;;;10.15;;
67798;SDS011;54596;43.216;27.904;2024-01-15T11:39:39;15.82;;;9.55;;
67798;SDS011;54596;43.216;27.904;2024-01-15T11:42:04;18.35;;;9.77;;
67798;SDS011;54596;43.216;27.904;2024-01-15T11:44:30;17.67;;;9.45;;
67798;SDS011;54596;43.216;27.904;2024-01-15T11:52:33;21.42;;;11.40;;
67798;SDS011;54596;43.216;27.904;2024-01-15T11:55:00;20.83;;;11.98;;
67798;SDS011;54596;43.216;27.904;2024-01-15T12:00:10;18.58;;;9.52;;
67798;SDS011;54596;43.216;27.904;2024-01-15T12:02:38;19.00;;;10.27;;
67798;SDS011;54596;43.216;27.904;2024-01-15T12:05:06;15.40;;;10.05;;
67798;SDS011;54596;43.216;27.904;2024-01-15T12:07:33;15.75;;;9.23;;
67798;SDS011;54596;43.216;27.904;2024-01-15T12:10:00;17.00;;;9.85;;
67798;SDS011;54596;43.216;27.904;2024-01-15T12:12:35;15.10;;;9.65;;
67798;SDS011;54596;43.216;27.904;2024-01-15T12:15:03;16.52;;;8.98;;
67798;SDS011;54596;43.216;27.904;2024-01-15T12:17:29;17.38;;;9.40;;
67798;SDS011;54596;43.216;27.904;2024-01-15T12:19:54;17.10;;;9.38;;
67798;SDS011;54596;43.216;27.904;2024-01-15T12:22:21;16.20;;;9.13;;
67798;SDS011;54596;43.216;27.904;2024-01-15T12:24:47;14.85;;;8.50;;
67798;SDS011;54596;43.216;27.904;2024-01-15T12:27:12;17.30;;;8.95;;
67798;SDS011;54596;43.216;27.904;2024-01-15T12:29:38;15.10;;;8.93;;
67798;SDS011;54596;43.216;27.904;2024-01-15T12:32:04;15.93;;;9.43;;
67798;SDS011;54596;43.216;27.904;2024-01-15T12:34:30;16.52;;;9.52;;
67798;SDS011;54596;43.216;27.904;2024-01-15T12:36:57;16.55;;;8.98;;
67798;SDS011;54596;43.216;27.904;2024-01-15T12:39:24;16.33;;;9.93;;
67798;SDS011;54596;43.216;27.904;2024-01-15T12:41:50;16.58;;;9.55;;
67798;SDS011;54596;43.216;27.904;2024-01-15T12:44:16;16.38;;;8.95;;
67798;SDS011;54596;43.216;27.904;2024-01-15T12:46:41;17.30;;;10.00;;
67798;SDS011;54596;43.216;27.904;2024-01-15T12:49:08;19.45;;;11.35;;
67798;SDS011;54596;43.216;27.904;2024-01-15T12:51:36;20.58;;;11.05;;
67798;SDS011;54596;43.216;27.904;2024-01-15T12:54:03;18.05;;;10.50;;
67798;SDS011;54596;43.216;27.904;2024-01-15T12:56:29;19.42;;;10.38;;
67798;SDS011;54596;43.216;27.904;2024-01-15T12:58:55;20.00;;;10.55;;
67798;SDS011;54596;43.216;27.904;2024-01-15T13:01:21;18.45;;;11.13;;
67798;SDS011;54596;43.216;27.904;2024-01-15T13:03:46;17.88;;;11.32;;
67798;SDS011;54596;43.216;27.904;2024-01-15T13:06:12;19.30;;;11.27;;
67798;SDS011;54596;43.216;27.904;2024-01-15T13:08:38;21.08;;;11.40;;
67798;SDS011;54596;43.216;27.904;2024-01-15T13:11:04;24.38;;;12.10;;
67798;SDS011;54596;43.216;27.904;2024-01-15T13:13:30;18.63;;;11.20;;
67798;SDS011;54596;43.216;27.904;2024-01-15T13:15:59;22.48;;;11.73;;
67798;SDS011;54596;43.216;27.904;2024-01-15T13:18:25;18.08;;;11.55;;
67798;SDS011;54596;43.216;27.904;2024-01-15T13:20:51;23.13;;;12.70;;
67798;SDS011;54596;43.216;27.904;2024-01-15T13:23:16;19.95;;;12.40;;
67798;SDS011;54596;43.216;27.904;2024-01-15T13:25:42;21.15;;;12.43;;
67798;SDS011;54596;43.216;27.904;2024-01-15T13:28:07;22.33;;;13.32;;
67798;SDS011;54596;43.216;27.904;2024-01-15T13:30:33;25.92;;;13.23;;
67798;SDS011;54596;43.216;27.904;2024-01-15T13:32:59;20.50;;;12.77;;
67798;SDS011;54596;43.216;27.904;2024-01-15T13:35:29;20.20;;;12.48;;
67798;SDS011;54596;43.216;27.904;2024-01-15T13:37:55;20.38;;;12.48;;
67798;SDS011;54596;43.216;27.904;2024-01-15T13:40:20;24.48;;;13.75;;
67798;SDS011;54596;43.216;27.904;2024-01-15T13:43:04;81.90;;;57.58;;
67798;SDS011;54596;43.216;27.904;2024-01-15T13:45:33;29.23;;;16.95;;
67798;SDS011;54596;43.216;27.904;2024-01-15T13:48:02;23.00;;;12.65;;
67798;SDS011;54596;43.216;27.904;2024-01-15T13:50:30;27.70;;;14.35;;
67798;SDS011;54596;43.216;27.904;2024-01-15T13:52:56;30.73;;;19.42;;
67798;SDS011;54596;43.216;27.904;2024-01-15T13:55:22;28.58;;;16.75;;
67798;SDS011;54596;43.216;27.904;2024-01-15T13:57:48;26.20;;;17.90;;
67798;SDS011;54596;43.216;27.904;2024-01-15T14:00:13;28.77;;;18.15;;
67798;SDS011;54596;43.216;27.904;2024-01-15T14:02:43;28.35;;;15.90;;
67798;SDS011;54596;43.216;27.904;2024-01-15T14:05:09;22.88;;;14.10;;
67798;SDS011;54596;43.216;27.904;2024-01-15T14:07:37;23.67;;;12.43;;
67798;SDS011;54596;43.216;27.904;2024-01-15T14:10:04;21.73;;;13.10;;
67798;SDS011;54596;43.216;27.904;2024-01-15T14:12:31;19.17;;;12.32;;
67798;SDS011;54596;43.216;27.904;2024-01-15T14:14:57;21.38;;;12.00;;
67798;SDS011;54596;43.216;27.904;2024-01-15T14:17:22;22.73;;;13.88;;
67798;SDS011;54596;43.216;27.904;2024-01-15T14:19:48;27.35;;;15.35;;
67798;SDS011;54596;43.216;27.904;2024-01-15T14:22:13;22.20;;;13.00;;
67798;SDS011;54596;43.216;27.904;2024-01-15T14:24:39;23.48;;;13.32;;
67798;SDS011;54596;43.216;27.904;2024-01-15T14:27:04;25.75;;;15.18;;